Flight Track Log - Related Links

Times and Time Zones

All times are in EDT time to prevent confusion due to time zone crossing. See the RPA3275 flight status page for this flight to view local times or setup timezone preferences in your user account.

Time Position Orientation Groundspeed Altitude Reporting Facility
EDT Latitude Longitude Course Direction KTS MPH feet Rate Location/Type
Tue 07:09:33 AM 42.7164 -73.8869 223° Southwest 210 242 3,600  Level Boston Center
Tue 07:10:00 AM 42.7333 -74.1427 270° West  Level FlightAware Approximate
Tue 07:11:00 AM 42.7333 -74.2570 270° West  Level FlightAware Approximate
Tue 07:11:05 AM 42.7269 -74.0228 276° West 256 295 7,100  Level Boston Center
Tue 07:12:00 AM 42.6992 -74.3530 220° Southwest  Level FlightAware Approximate
Tue 07:12:05 AM 42.7339 -74.1275 275° West 263 303 9,800  Level Boston Center
Tue 07:13:00 AM 42.6259 -74.4355 220° Southwest  Level FlightAware Approximate
Tue 07:13:05 AM 42.7406 -74.2325 275° West 273 314 11,800  Level Boston Center
Tue 07:14:00 AM 42.5541 -74.5200 223° Southwest  Level FlightAware Approximate
Tue 07:14:05 AM 42.7511 -74.3458 277° West 291 335 14,000  Level Boston Center
Tue 07:15:05 AM 42.7619 -74.4564 278° West 297 342 16,000 1,000 Climbing Boston Center
Tue 07:16:05 AM 42.7722 -74.5728 277° West 308 354 16,000  Level Boston Center
Tue 07:17:05 AM 42.7803 -74.6975 275° West 316 364 16,000  Level Boston Center
Tue 07:18:05 AM 42.7903 -74.8167 277° West 322 371 16,000  Level Boston Center
Tue 07:19:05 AM 42.7803 -74.8983 261° West 317 365 16,000  Level Boston Center
Tue 07:20:05 AM 42.6669 -74.9306 192° South 259 298 16,000  Level Boston Center
Tue 07:21:05 AM 42.5711 -74.9353 182° South 313 360 16,000  Level Boston Center
Tue 07:22:05 AM 42.4750 -74.9397 182° South 325 374 16,000  Level Boston Center
Tue 07:23:05 AM 42.3789 -74.9472 183° South 344 396 16,000  Level Boston Center
Tue 07:24:52 AM 42.2203 -74.9544 182° South 364 419 16,000  Level New York Center
Tue 07:25:53 AM 42.1225 -75.0069 202° Southwest 345 397 16,000  Level New York Center
Tue 07:26:51 AM 42.0431 -75.0744 212° Southwest 345 397 16,000  Level New York Center
Tue 07:27:51 AM 41.9639 -75.1389 211° Southwest 345 397 16,000  Level New York Center
Tue 07:28:53 AM 41.8800 -75.2058 211° Southwest 355 409 16,000 -496 Level New York Center
Tue 07:29:52 AM 41.8050 -75.2647 210° Southwest 355 409 15,000 -1,008 Descending New York Center
Tue 07:30:52 AM 41.7233 -75.3314 211° Southwest 350 403 14,000 -1,041 Descending New York Center
Tue 07:31:53 AM 41.6353 -75.4031 211° Southwest 350 403 12,900 -1,059 Descending New York Center
Tue 07:32:51 AM 41.5536 -75.4669 210° Southwest 350 403 11,900 -504 Descending New York Center
Tue 07:33:52 AM 41.4739 -75.5306 211° Southwest 344 396 11,900  Level New York Center
Tue 07:34:50 AM 41.4031 -75.5864 211° Southwest 344 396 11,900  Level New York Center
Tue 07:35:51 AM 41.3125 -75.6572 210° Southwest 344 396 11,900 -295 Level New York Center
Tue 07:36:52 AM 41.2258 -75.6894 196° South 344 396 11,300 -744 Descending New York Center
Tue 07:37:52 AM 41.1322 -75.6883 179° South 332 382 10,400 -694 Descending New York Center
Tue 07:38:53 AM 41.0425 -75.6872 179° South 332 382 9,900 -198 Descending New York Center
Tue 07:39:53 AM 40.9536 -75.6725 173° South 327 376 10,000 50 Climbing New York Center
Tue 07:40:52 AM 40.8761 -75.6339 159° South 327 376 10,000  Level New York Center
Tue 07:41:53 AM 40.7903 -75.5922 160° South 335 386 10,000  Level New York Center
Tue 07:42:53 AM 40.6942 -75.5472 160° South 335 386 10,000  Level New York Center
Tue 07:43:51 AM 40.6083 -75.5056 160° South 335 386 10,000  Level New York Center
Tue 07:44:51 AM 40.5222 -75.4669 161° South 335 386 10,000  Level New York Center
Tue 07:45:52 AM 40.4447 -75.4289 160° South 319 367 10,000 -689 Level New York Center
Tue 07:46:53 AM 40.3692 -75.3858 157° South 299 344 8,600 -1,488 Descending New York Center
Tue 07:47:53 AM 40.2958 -75.3428 156° South 294 338 7,000 -814 Descending New York Center
Tue 07:48:51 AM 40.2306 -75.3058 157° South 289 333 7,000  Level New York Center
Tue 07:49:52 AM 40.1619 -75.2469 147° Southeast 290 334 7,000 -443 Level New York Center
Tue 07:50:53 AM 40.0961 -75.1694 138° Southeast 290 334 6,100 -536 Descending New York Center
Tue 07:51:44 AM 40.0667 -75.1000 119° Southeast 254 292 6,000 -108 Descending Philadelphia TRACON
Tue 07:52:44 AM 40.0333 -75.0167 118° Southeast 204 235 5,900 -684 Descending Philadelphia TRACON
Tue 07:53:38 AM 39.9833 -75.0000 166° South 195 224 4,700 -1,450 Descending Philadelphia TRACON
Tue 07:54:44 AM 39.9333 -74.9833 166° South 185 213 3,000 -895 Descending Philadelphia TRACON
Tue 07:55:32 AM 39.9167 -75.0333 247° West 176 203 3,000  Level Philadelphia TRACON

Login

Don't have an account? Register now (free) for customized features, flight alerts, and more!